Time;durP1;ratioP1;P1;durP2;ratioP2;P2;SDS_P1;SDS_P2;PMS_P1;PMS_P2;Temp;Humidity;BMP_temperature;BMP_pressure;BME280_temperature;BME280_humidity;BME280_pressure;Samples;Min_cycle;Max_cycle;Signal;HPM_P1;HPM_P2
2022/10/01 00:01:52;;;;;;;;;;;;;;;;;;5076047;28;19921;-59
2022/10/01 00:04:18;;;;;;;;;;;;;;;;;;5082255;28;19921;-59
2022/10/01 00:06:43;;;;;;;;;;;;;;;;;;5075248;28;20003;-59
2022/10/01 00:09:08;;;;;;;;;;;;;;;;;;5060932;28;20284;-59
2022/10/01 00:11:33;;;;;;;;;;;;;;;;;;5083986;28;19920;-59
2022/10/01 00:13:58;;;;;;;;;;;;;;;;;;5081905;28;19916;-59
2022/10/01 00:16:23;;;;;;;;;;;;;;;;;;5084497;28;19912;-59
2022/10/01 00:18:49;;;;;;;;;;;;;;;;;;5076063;28;19963;-57
2022/10/01 00:21:14;;;;;;;;;;;;;;;;;;5074712;28;19913;-57
2022/10/01 00:23:39;;;;;;;;;;;;;;;;;;5079648;28;19971;-58
2022/10/01 00:26:04;;;;;;;;;;;;;;;;;;5085682;28;19919;-59
2022/10/01 00:28:29;;;;;;;;;;;;;;;;;;5080526;28;19916;-57
2022/10/01 00:30:54;;;;;;;;;;;;;;;;;;5081758;28;20273;-59
2022/10/01 00:33:20;;;;;;;;;;;;;;;;;;5076994;28;19913;-59
2022/10/01 00:35:45;;;;;;;;;;;;;;;;;;5082907;28;19912;-59
2022/10/01 00:38:10;;;;;;;;;;;;;;;;;;5083284;28;19913;-59
2022/10/01 00:40:35;;;;;;;;;;;;;;;;;;5071916;28;19916;-59
2022/10/01 00:43:00;;;;;;;;;;;;;;;;;;5077254;28;19917;-59
2022/10/01 00:45:26;;;;;;;;;;;;;;;;;;5085918;28;20002;-59
2022/10/01 00:47:51;;;;;;;;;;;;;;;;;;5083874;28;20312;-57
2022/10/01 00:50:16;;;;;;;;;;;;;;;;;;5082720;28;19999;-57
2022/10/01 00:52:41;;;;;;;;;;;;;;;;;;5084169;28;20401;-59
2022/10/01 00:55:07;;;;;;;;;;;;;;;;;;5090767;28;20329;-59
2022/10/01 00:57:32;;;;;;;;;;;;;;;;;;5078980;28;19948;-58
2022/10/01 00:59:57;;;;;;;;;;;;;;;;;;5088524;28;19912;-58
2022/10/01 01:02:23;;;;;;;;;;;;;;;;;;5090269;28;20388;-59
2022/10/01 01:04:48;;;;;;;;;;;;;;;;;;5092258;28;20303;-59
2022/10/01 01:07:13;;;;;;;;;;;;;;;;;;5085683;28;20010;-59
2022/10/01 01:09:38;;;;;;;;;;;;;;;;;;5088961;28;19912;-59
2022/10/01 01:12:03;;;;;;;;;;;;;;;;;;5073868;28;19912;-59
2022/10/01 01:14:28;;;;;;;;;;;;;;;;;;5082455;28;20029;-59
2022/10/01 01:16:53;;;;;;;;;;;;;;;;;;5080236;28;19947;-59
2022/10/01 01:19:19;;;;;;;;;;;;;;;;;;5056222;28;19928;-57
2022/10/01 01:21:44;;;;;;;;;;;;;;;;;;5075368;28;19913;-59
2022/10/01 01:24:09;;;;;;;;;;;;;;;;;;5082381;28;19919;-58
2022/10/01 01:26:35;;;;;;;;;;;;;;;;;;5081104;28;19912;-57
2022/10/01 01:29:00;;;;;;;;;;;;;;;;;;5075183;28;19919;-57
2022/10/01 01:31:25;;;;;;;;;;;;;;;;;;5074832;28;19920;-58
2022/10/01 01:33:50;;;;;;;;;;;;;;;;;;5092402;28;19912;-57
2022/10/01 01:36:16;;;;;;;;;;;;;;;;;;5091375;28;19923;-57
2022/10/01 01:38:41;;;;;;;;;;;;;;;;;;5077793;28;20055;-58
2022/10/01 01:41:06;;;;;;;;;;;;;;;;;;5079491;28;19920;-59
2022/10/01 01:43:32;;;;;;;;;;;;;;;;;;5094537;28;19947;-57
2022/10/01 01:45:58;;;;;;;;;;;;;;;;;;5089794;28;19934;-58
2022/10/01 01:48:23;;;;;;;;;;;;;;;;;;5082552;28;20415;-58
2022/10/01 01:50:48;;;;;;;;;;;;;;;;;;5084905;28;19920;-57
2022/10/01 01:53:14;;;;;;;;;;;;;;;;;;5080468;28;20052;-58
2022/10/01 01:55:39;;;;;;;;;;;;;;;;;;5080150;28;19916;-58
2022/10/01 01:58:04;;;;;;;;;;;;;;;;;;5079279;28;19908;-57
2022/10/01 02:00:29;;;;;;;;;;;;;;;;;;5076478;28;20006;-56
2022/10/01 02:02:54;;;;;;;;;;;;;;;;;;5080530;28;19916;-58
2022/10/01 02:05:19;;;;;;;;;;;;;;;;;;5074294;28;19970;-58
2022/10/01 02:07:45;;;;;;;;;;;;;;;;;;5076528;28;19919;-58
2022/10/01 02:10:10;;;;;;;;;;;;;;;;;;5085446;28;19909;-57
2022/10/01 02:12:36;;;;;;;;;;;;;;;;;;5091936;28;20428;-58
2022/10/01 02:15:01;;;;;;;;;;;;;;;;;;5094180;28;19915;-58
2022/10/01 02:17:26;;;;;;;;;;;;;;;;;;5083032;28;19954;-57
2022/10/01 02:19:51;;;;;;;;;;;;;;;;;;5073486;28;19924;-58
2022/10/01 02:22:16;;;;;;;;;;;;;;;;;;5074452;28;19936;-57
2022/10/01 02:24:41;;;;;;;;;;;;;;;;;;5064264;28;19922;-58
2022/10/01 02:27:06;;;;;;;;;;;;;;;;;;5090218;28;19912;-58
2022/10/01 02:29:32;;;;;;;;;;;;;;;;;;5088714;28;19913;-57
2022/10/01 02:31:57;;;;;;;;;;;;;;;;;;5077889;28;20012;-59
2022/10/01 02:34:22;;;;;;;;;;;;;;;;;;5083462;28;19958;-57
2022/10/01 02:36:47;;;;;;;;;;;;;;;;;;5077356;28;19961;-58
2022/10/01 02:39:12;;;;;;;;;;;;;;;;;;5073536;28;20007;-58
2022/10/01 02:41:37;;;;;;;;;;;;;;;;;;5077982;28;20284;-58
2022/10/01 02:44:03;;;;;;;;;;;;;;;;;;5092227;28;20325;-58
2022/10/01 02:46:28;;;;;;;;;;;;;;;;;;5086875;28;20037;-58
2022/10/01 02:48:53;;;;;;;;;;;;;;;;;;5073692;28;20037;-58
2022/10/01 02:51:19;;;;;;;;;;;;;;;;;;5084376;28;19912;-59
2022/10/01 02:53:44;;;;;;;;;;;;;;;;;;5080843;28;20375;-58
2022/10/01 02:56:09;;;;;;;;;;;;;;;;;;5080880;28;19966;-58
2022/10/01 02:58:35;;;;;;;;;;;;;;;;;;5081212;28;19938;-58
2022/10/01 03:01:00;;;;;;;;;;;;;;;;;;5076369;28;19917;-59
2022/10/01 03:03:26;;;;;;;;;;;;;;;;;;5073323;28;19923;-58
2022/10/01 03:05:51;;;;;;;;;;;;;;;;;;5076223;28;19965;-58
2022/10/01 03:08:16;;;;;;;;;;;;;;;;;;5088025;28;19958;-58
2022/10/01 03:10:41;;;;;;;;;;;;;;;;;;5073219;28;19919;-58
2022/10/01 03:13:06;;;;;;;;;;;;;;;;;;5073045;28;19912;-59
2022/10/01 03:15:31;;;;;;;;;;;;;;;;;;5073363;28;19909;-55
2022/10/01 03:17:57;;;;;;;;;;;;;;;;;;5074040;28;19959;-59
2022/10/01 03:20:22;;;;;;;;;;;;;;;;;;5079740;28;20316;-59
2022/10/01 03:22:47;;;;;;;;;;;;;;;;;;5079980;28;20338;-58
2022/10/01 03:25:12;;;;;;;;;;;;;;;;;;5080266;28;19915;-58
2022/10/01 03:27:38;;;;;;;;;;;;;;;;;;5088983;28;19912;-58
2022/10/01 03:30:03;;;;;;;;;;;;;;;;;;5082095;28;19913;-58
2022/10/01 03:32:28;;;;;;;;;;;;;;;;;;5079797;28;19967;-58
2022/10/01 03:34:53;;;;;;;;;;;;;;;;;;5072798;28;20316;-59
2022/10/01 03:37:18;;;;;;;;;;;;;;;;;;5080152;28;19979;-58
2022/10/01 03:39:43;;;;;;;;;;;;;;;;;;5083397;28;19919;-58
2022/10/01 03:42:08;;;;;;;;;;;;;;;;;;5055398;28;19917;-59
2022/10/01 03:44:34;;;;;;;;;;;;;;;;;;5092079;28;19912;-58
2022/10/01 03:46:59;;;;;;;;;;;;;;;;;;5093188;28;19913;-58
2022/10/01 03:49:24;;;;;;;;;;;;;;;;;;5077687;28;19912;-58
2022/10/01 03:51:49;;;;;;;;;;;;;;;;;;5079725;28;20388;-57
2022/10/01 03:54:14;;;;;;;;;;;;;;;;;;5084540;28;19912;-59
2022/10/01 03:56:41;;;;;;;;;;;;;;;;;;5087494;28;19961;-59
2022/10/01 03:59:06;;;;;;;;;;;;;;;;;;5083880;28;20257;-59
2022/10/01 04:01:31;;;;;;;;;;;;;;;;;;5089270;28;19919;-59
2022/10/01 04:03:56;;;;;;;;;;;;;;;;;;5088214;28;20014;-60
2022/10/01 04:06:21;;;;;;;;;;;;;;;;;;5084066;28;20335;-58
2022/10/01 04:08:47;;;;;;;;;;;;;;;;;;5084812;28;20373;-59
2022/10/01 04:11:12;;;;;;;;;;;;;;;;;;5067985;28;19913;-58
2022/10/01 04:13:37;;;;;;;;;;;;;;;;;;5084304;28;19915;-58
2022/10/01 04:16:02;;;;;;;;;;;;;;;;;;5081710;28;19913;-58
2022/10/01 04:18:27;;;;;;;;;;;;;;;;;;5084522;28;19935;-58
2022/10/01 04:20:52;;;;;;;;;;;;;;;;;;5077935;28;19960;-58
2022/10/01 04:23:18;;;;;;;;;;;;;;;;;;5083234;28;20348;-58
2022/10/01 04:25:43;;;;;;;;;;;;;;;;;;5090319;28;20417;-57
2022/10/01 04:28:08;;;;;;;;;;;;;;;;;;5076670;28;19912;-58
2022/10/01 04:30:33;;;;;;;;;;;;;;;;;;5076296;28;19919;-58
2022/10/01 04:32:58;;;;;;;;;;;;;;;;;;5079703;28;19912;-58
2022/10/01 04:35:23;;;;;;;;;;;;;;;;;;5081178;28;20334;-58
2022/10/01 04:37:48;;;;;;;;;;;;;;;;;;5086990;28;20026;-58
2022/10/01 04:40:14;;;;;;;;;;;;;;;;;;5083433;28;20361;-58
2022/10/01 04:42:39;;;;;;;;;;;;;;;;;;5090605;28;20321;-59
2022/10/01 04:45:04;;;;;;;;;;;;;;;;;;5076396;28;19912;-58
2022/10/01 04:47:30;;;;;;;;;;;;;;;;;;5088964;28;19927;-59
2022/10/01 04:49:55;;;;;;;;;;;;;;;;;;5076337;28;19912;-59
2022/10/01 04:52:20;;;;;;;;;;;;;;;;;;5073489;28;20071;-58
2022/10/01 04:54:45;;;;;;;;;;;;;;;;;;5092346;28;19915;-58
2022/10/01 04:57:11;;;;;;;;;;;;;;;;;;5072972;28;19924;-57
2022/10/01 04:59:36;;;;;;;;;;;;;;;;;;5087975;28;20037;-58
2022/10/01 05:02:01;;;;;;;;;;;;;;;;;;5076476;28;19913;-57
2022/10/01 05:04:26;;;;;;;;;;;;;;;;;;5082974;28;19912;-56
2022/10/01 05:06:51;;;;;;;;;;;;;;;;;;5084896;28;19924;-57
2022/10/01 05:09:16;;;;;;;;;;;;;;;;;;5082038;28;20335;-58
2022/10/01 05:11:41;;;;;;;;;;;;;;;;;;5078647;28;19912;-58
2022/10/01 05:14:07;;;;;;;;;;;;;;;;;;5057782;28;20007;-59
2022/10/01 05:16:32;;;;;;;;;;;;;;;;;;5061940;28;19913;-58
2022/10/01 05:18:57;;;;;;;;;;;;;;;;;;5076771;28;19970;-59
2022/10/01 05:21:23;;;;;;;;;;;;;;;;;;5083126;28;20373;-58
2022/10/01 05:23:48;;;;;;;;;;;;;;;;;;5074703;28;20349;-58
2022/10/01 05:26:13;;;;;;;;;;;;;;;;;;5085465;28;19912;-58
2022/10/01 05:28:43;;;;;;;;;;;;;;;;;;5068268;28;19985;-59
2022/10/01 05:31:08;;;;;;;;;;;;;;;;;;5066318;28;19915;-59
2022/10/01 05:33:33;;;;;;;;;;;;;;;;;;5079348;28;19912;-57
2022/10/01 05:35:59;;;;;;;;;;;;;;;;;;5064465;28;20513;-58
2022/10/01 05:38:24;;;;;;;;;;;;;;;;;;5081840;28;19916;-58
2022/10/01 05:40:50;;;;;;;;;;;;;;;;;;5075464;28;19912;-59
2022/10/01 05:43:15;;;;;;;;;;;;;;;;;;5080356;28;19923;-57
2022/10/01 05:45:40;;;;;;;;;;;;;;;;;;5061901;28;19920;-58
2022/10/01 05:48:05;;;;;;;;;;;;;;;;;;5064026;28;19985;-58
2022/10/01 05:50:30;;;;;;;;;;;;;;;;;;5085859;28;20369;-59
2022/10/01 05:52:55;;;;;;;;;;;;;;;;;;5082050;28;19970;-58
2022/10/01 05:55:21;;;;;;;;;;;;;;;;;;5075065;28;19912;-58
2022/10/01 05:57:46;;;;;;;;;;;;;;;;;;5088131;28;20451;-58
2022/10/01 06:00:12;;;;;;;;;;;;;;;;;;5086324;28;19912;-58
2022/10/01 06:02:37;;;;;;;;;;;;;;;;;;5084374;28;20469;-59
2022/10/01 06:05:02;;;;;;;;;;;;;;;;;;5088407;28;20079;-58
2022/10/01 06:07:27;;;;;;;;;;;;;;;;;;5086362;28;19921;-60
2022/10/01 06:09:53;;;;;;;;;;;;;;;;;;5092001;28;20336;-58
2022/10/01 06:12:18;;;;;;;;;;;;;;;;;;5091642;28;20372;-59
2022/10/01 06:14:43;;;;;;;;;;;;;;;;;;5084649;28;19916;-59
2022/10/01 06:17:08;;;;;;;;;;;;;;;;;;5089089;28;20085;-59
2022/10/01 06:19:33;;;;;;;;;;;;;;;;;;5083110;28;19959;-57
2022/10/01 06:21:58;;;;;;;;;;;;;;;;;;5092535;28;19928;-59
2022/10/01 06:24:25;;;;;;;;;;;;;;;;;;5081353;28;19912;-59
2022/10/01 06:26:50;;;;;;;;;;;;;;;;;;5082219;28;20111;-58
2022/10/01 06:29:15;;;;;;;;;;;;;;;;;;5075948;28;19908;-59
2022/10/01 06:31:41;;;;;;;;;;;;;;;;;;5091072;28;19952;-59
2022/10/01 06:34:06;;;;;;;;;;;;;;;;;;5074227;28;19962;-59
2022/10/01 06:36:31;;;;;;;;;;;;;;;;;;5087257;28;19922;-59
2022/10/01 06:38:56;;;;;;;;;;;;;;;;;;5088914;28;19912;-57
2022/10/01 06:41:22;;;;;;;;;;;;;;;;;;5088051;28;19912;-59
2022/10/01 06:43:47;;;;;;;;;;;;;;;;;;5080399;28;19962;-60
2022/10/01 06:46:12;;;;;;;;;;;;;;;;;;5086936;28;19938;-58
2022/10/01 06:48:37;;;;;;;;;;;;;;;;;;5079661;28;20330;-59
2022/10/01 06:51:02;;;;;;;;;;;;;;;;;;5085761;28;19912;-60
2022/10/01 06:53:27;;;;;;;;;;;;;;;;;;5081956;28;19957;-59
2022/10/01 06:55:53;;;;;;;;;;;;;;;;;;5063775;28;19919;-59
2022/10/01 06:58:18;;;;;;;;;;;;;;;;;;5076781;28;19966;-59
2022/10/01 07:00:43;;;;;;;;;;;;;;;;;;5081629;28;20360;-59
2022/10/01 07:03:09;;;;;;;;;;;;;;;;;;5080110;28;19917;-59
2022/10/01 07:05:34;;;;;;;;;;;;;;;;;;5081195;28;19912;-62
2022/10/01 07:08:00;;;;;;;;;;;;;;;;;;5088050;28;19923;-58
2022/10/01 07:10:25;;;;;;;;;;;;;;;;;;5077405;28;20015;-59
2022/10/01 07:12:50;;;;;;;;;;;;;;;;;;5079758;28;20118;-58
2022/10/01 07:15:15;;;;;;;;;;;;;;;;;;5078598;28;19974;-58
2022/10/01 07:17:40;;;;;;;;;;;;;;;;;;5077347;28;20310;-57
2022/10/01 07:20:05;;;;;;;;;;;;;;;;;;5079329;28;20380;-58
2022/10/01 07:22:31;;;;;;;;;;;;;;;;;;5076961;28;20485;-58
2022/10/01 07:24:56;;;;;;;;;;;;;;;;;;5082952;28;19912;-59
2022/10/01 07:27:23;;;;;;;;;;;;;;;;;;5081184;28;20196;-59
2022/10/01 07:29:48;;;;;;;;;;;;;;;;;;5080929;28;19912;-59
2022/10/01 07:32:14;;;;;;;;;;;;;;;;;;5080075;28;19912;-59
2022/10/01 07:34:39;;;;;;;;;;;;;;;;;;5080602;28;19951;-58
2022/10/01 07:37:05;;;;;;;;;;;;;;;;;;5078974;28;20380;-58
2022/10/01 07:39:30;;;;;;;;;;;;;;;;;;5086837;28;20395;-59
2022/10/01 07:41:55;;;;;;;;;;;;;;;;;;5077421;28;19958;-59
2022/10/01 07:44:20;;;;;;;;;;;;;;;;;;5081489;28;19981;-59
2022/10/01 07:46:47;;;;;;;;;;;;;;;;;;5083016;28;19973;-60
2022/10/01 07:49:12;;;;;;;;;;;;;;;;;;5074945;28;19958;-59
2022/10/01 07:51:37;;;;;;;;;;;;;;;;;;5081230;28;19912;-59
2022/10/01 07:54:02;;;;;;;;;;;;;;;;;;5079617;28;19912;-58
2022/10/01 07:56:27;;;;;;;;;;;;;;;;;;5080193;28;19917;-59
2022/10/01 07:58:53;;;;;;;;;;;;;;;;;;5082985;28;20265;-59
2022/10/01 08:01:18;;;;;;;;;;;;;;;;;;5088181;28;20365;-59
2022/10/01 08:03:43;;;;;;;;;;;;;;;;;;5082376;28;19916;-59
2022/10/01 08:06:09;;;;;;;;;;;;;;;;;;5075303;28;19917;-60
2022/10/01 08:08:34;;;;;;;;;;;;;;;;;;5087638;28;19920;-60
2022/10/01 08:10:59;;;;;;;;;;;;;;;;;;5083053;28;19919;-58
2022/10/01 08:13:24;;;;;;;;;;;;;;;;;;5078734;28;19908;-60
2022/10/01 08:15:52;;;;;;;;;;;;;;;;;;5083070;28;20439;-59
2022/10/01 08:18:17;;;;;;;;;;;;;;;;;;5069695;28;19927;-59
2022/10/01 08:20:43;;;;;;;;;;;;;;;;;;5080631;28;20369;-58
2022/10/01 08:23:09;;;;;;;;;;;;;;;;;;5079382;28;20011;-59
2022/10/01 08:25:34;;;;;;;;;;;;;;;;;;5071353;28;19912;-59
2022/10/01 08:27:59;;;;;;;;;;;;;;;;;;5079586;28;20080;-60
2022/10/01 08:30:24;;;;;;;;;;;;;;;;;;5078546;28;19916;-60
2022/10/01 08:32:49;;;;;;;;;;;;;;;;;;5083844;28;20103;-59
2022/10/01 08:35:14;;;;;;;;;;;;;;;;;;5079745;28;19921;-59
2022/10/01 08:37:40;;;;;;;;;;;;;;;;;;5077832;28;19916;-58
2022/10/01 08:40:05;;;;;;;;;;;;;;;;;;5079491;28;19916;-59
2022/10/01 08:42:32;;;;;;;;;;;;;;;;;;5086016;28;19920;-59
2022/10/01 08:45:00;;;;;;;;;;;;;;;;;;5076016;28;19913;-59
2022/10/01 08:47:25;;;;;;;;;;;;;;;;;;5078042;28;19913;-58
2022/10/01 08:49:50;;;;;;;;;;;;;;;;;;5079767;28;19927;-58
2022/10/01 08:52:15;;;;;;;;;;;;;;;;;;5085016;28;19915;-59
2022/10/01 08:54:40;;;;;;;;;;;;;;;;;;5078990;28;20009;-59
2022/10/01 08:57:05;;;;;;;;;;;;;;;;;;5086878;28;19912;-59
2022/10/01 08:59:31;;;;;;;;;;;;;;;;;;5093691;28;19918;-60
2022/10/01 09:01:57;;;;;;;;;;;;;;;;;;5092248;28;19912;-60
2022/10/01 09:04:23;;;;;;;;;;;;;;;;;;5075289;28;20357;-59
2022/10/01 09:06:48;;;;;;;;;;;;;;;;;;5078884;28;19993;-59
2022/10/01 09:09:13;;;;;;;;;;;;;;;;;;5078927;28;19978;-59
2022/10/01 09:11:38;;;;;;;;;;;;;;;;;;5087372;28;20288;-59
2022/10/01 09:14:03;;;;;;;;;;;;;;;;;;5078736;28;20384;-59
2022/10/01 09:16:28;;;;;;;;;;;;;;;;;;5081832;28;19913;-59
2022/10/01 09:18:53;;;;;;;;;;;;;;;;;;5084344;28;19919;-58
2022/10/01 09:21:22;;;;;;;;;;;;;;;;;;5091587;28;20334;-60
2022/10/01 09:23:47;;;;;;;;;;;;;;;;;;5086649;28;20006;-58
2022/10/01 09:26:12;;;;;;;;;;;;;;;;;;5088967;28;19952;-59
2022/10/01 09:28:37;;;;;;;;;;;;;;;;;;5084619;28;19916;-60
2022/10/01 09:31:02;;;;;;;;;;;;;;;;;;5075653;28;20392;-58
2022/10/01 09:33:28;;;;;;;;;;;;;;;;;;5078898;28;19958;-58
2022/10/01 09:35:53;;;;;;;;;;;;;;;;;;5068799;28;19908;-58
2022/10/01 09:38:18;;;;;;;;;;;;;;;;;;5079414;28;19916;-59
2022/10/01 09:40:43;;;;;;;;;;;;;;;;;;5093776;28;19908;-60
2022/10/01 09:43:09;;;;;;;;;;;;;;;;;;5092313;28;19916;-59
2022/10/01 09:45:34;;;;;;;;;;;;;;;;;;5082281;28;20046;-58
2022/10/01 09:47:59;;;;;;;;;;;;;;;;;;5077152;28;19916;-59
2022/10/01 09:50:24;;;;;;;;;;;;;;;;;;5085329;28;19915;-58
2022/10/01 09:52:49;;;;;;;;;;;;;;;;;;5079339;28;19913;-59
2022/10/01 09:55:15;;;;;;;;;;;;;;;;;;5079356;28;20430;-58
2022/10/01 09:57:40;;;;;;;;;;;;;;;;;;5079171;28;20319;-59
2022/10/01 10:00:08;;;;;;;;;;;;;;;;;;5092450;28;20348;-58
2022/10/01 10:02:34;;;;;;;;;;;;;;;;;;5080683;28;19943;-58
2022/10/01 10:04:59;;;;;;;;;;;;;;;;;;5077778;28;20281;-59
2022/10/01 10:07:24;;;;;;;;;;;;;;;;;;5085289;28;20011;-58
2022/10/01 10:09:49;;;;;;;;;;;;;;;;;;5074239;28;19971;-59
2022/10/01 10:12:14;;;;;;;;;;;;;;;;;;5080860;28;19913;-58
2022/10/01 10:14:40;;;;;;;;;;;;;;;;;;5089830;28;19920;-59
2022/10/01 10:17:05;;;;;;;;;;;;;;;;;;5081263;28;19962;-59
2022/10/01 10:19:31;;;;;;;;;;;;;;;;;;5073997;28;19920;-59
2022/10/01 10:21:59;;;;;;;;;;;;;;;;;;5085263;28;19916;-59
2022/10/01 10:24:25;;;;;;;;;;;;;;;;;;5090840;28;19924;-59
2022/10/01 10:26:50;;;;;;;;;;;;;;;;;;5085526;28;19923;-58
2022/10/01 10:29:15;;;;;;;;;;;;;;;;;;5092997;28;19908;-59
2022/10/01 10:31:40;;;;;;;;;;;;;;;;;;5093661;28;19908;-58
2022/10/01 10:34:06;;;;;;;;;;;;;;;;;;5080332;28;20018;-59
2022/10/01 10:36:31;;;;;;;;;;;;;;;;;;5079531;28;20559;-59
2022/10/01 10:38:56;;;;;;;;;;;;;;;;;;5060198;28;19995;-58
2022/10/01 10:41:25;;;;;;;;;;;;;;;;;;5084756;28;19922;-60
2022/10/01 10:43:50;;;;;;;;;;;;;;;;;;5085870;28;19920;-59
2022/10/01 10:46:15;;;;;;;;;;;;;;;;;;5074589;28;19913;-59
2022/10/01 10:48:43;;;;;;;;;;;;;;;;;;5073099;28;20003;-59
2022/10/01 10:51:09;;;;;;;;;;;;;;;;;;5082582;28;19912;-58
2022/10/01 10:53:34;;;;;;;;;;;;;;;;;;5078532;28;19908;-59
2022/10/01 10:55:59;;;;;;;;;;;;;;;;;;5078892;28;20428;-59
2022/10/01 10:58:25;;;;;;;;;;;;;;;;;;5080641;28;19916;-59
2022/10/01 11:00:50;;;;;;;;;;;;;;;;;;5074849;28;19909;-59
2022/10/01 11:03:15;;;;;;;;;;;;;;;;;;5071168;28;19912;-59
2022/10/01 11:05:40;;;;;;;;;;;;;;;;;;5084157;28;19919;-59
2022/10/01 11:08:05;;;;;;;;;;;;;;;;;;5083357;28;19916;-57
2022/10/01 11:10:30;;;;;;;;;;;;;;;;;;5074943;28;19912;-62
2022/10/01 11:12:56;;;;;;;;;;;;;;;;;;5074726;28;21302;-62
2022/10/01 11:15:21;;;;;;;;;;;;;;;;;;5080580;28;20194;-62
2022/10/01 11:17:46;;;;;;;;;;;;;;;;;;5075020;28;19920;-62
2022/10/01 11:20:11;;;;;;;;;;;;;;;;;;5071452;28;20084;-62
2022/10/01 11:22:36;;;;;;;;;;;;;;;;;;5076925;28;19939;-62
2022/10/01 11:25:01;;;;;;;;;;;;;;;;;;5076887;28;19916;-63
2022/10/01 11:27:27;;;;;;;;;;;;;;;;;;5080059;28;19917;-61
2022/10/01 11:29:52;;;;;;;;;;;;;;;;;;5082904;28;20275;-62
2022/10/01 11:32:18;;;;;;;;;;;;;;;;;;5077817;28;20276;-61
2022/10/01 11:34:47;;;;;;;;;;;;;;;;;;5083361;28;20399;-61
2022/10/01 11:37:12;;;;;;;;;;;;;;;;;;5080169;28;20424;-62
2022/10/01 11:39:37;;;;;;;;;;;;;;;;;;5079129;28;19912;-62
2022/10/01 11:42:02;;;;;;;;;;;;;;;;;;5080440;28;20015;-59
2022/10/01 11:44:27;;;;;;;;;;;;;;;;;;5079700;28;20355;-68
2022/10/01 11:46:53;;;;;;;;;;;;;;;;;;5061471;28;19927;-64
2022/10/01 11:49:18;;;;;;;;;;;;;;;;;;5074998;28;19915;-66
2022/10/01 11:51:43;;;;;;;;;;;;;;;;;;5083137;28;19916;-67
2022/10/01 11:54:08;;;;;;;;;;;;;;;;;;5078060;28;19912;-60
2022/10/01 11:59:19;;;;;;;;;;;;;;;;;;5085347;28;20394;-59
2022/10/01 12:01:44;;;;;;;;;;;;;;;;;;5085186;28;19919;-61
2022/10/01 12:04:09;;;;;;;;;;;;;;;;;;5081673;28;20010;-63
2022/10/01 12:06:34;;;;;;;;;;;;;;;;;;5081124;28;20345;-61
2022/10/01 12:08:59;;;;;;;;;;;;;;;;;;5080488;28;19916;-61
2022/10/01 12:11:25;;;;;;;;;;;;;;;;;;5086362;28;19912;-61
2022/10/01 12:13:54;;;;;;;;;;;;;;;;;;5084889;28;19912;-61
2022/10/01 12:16:19;;;;;;;;;;;;;;;;;;5075875;28;19920;-62
2022/10/01 12:18:44;;;;;;;;;;;;;;;;;;5079572;28;19923;-62
2022/10/01 12:21:09;;;;;;;;;;;;;;;;;;5084998;28;19916;-62
2022/10/01 12:23:34;;;;;;;;;;;;;;;;;;5084794;28;19916;-61
2022/10/01 12:25:59;;;;;;;;;;;;;;;;;;5080043;28;19919;-60
2022/10/01 12:28:24;;;;;;;;;;;;;;;;;;5081453;28;19913;-60
2022/10/01 12:30:50;;;;;;;;;;;;;;;;;;5077913;28;20138;-62
2022/10/01 12:33:15;;;;;;;;;;;;;;;;;;5085002;28;19912;-61
2022/10/01 12:35:40;;;;;;;;;;;;;;;;;;5081761;28;19989;-59
2022/10/01 12:38:07;;;;;;;;;;;;;;;;;;5086952;28;19912;-60
2022/10/01 12:40:32;;;;;;;;;;;;;;;;;;5085737;28;19972;-61
2022/10/01 12:42:57;;;;;;;;;;;;;;;;;;5082894;28;20561;-59
2022/10/01 12:45:22;;;;;;;;;;;;;;;;;;5084693;28;19912;-59
2022/10/01 12:47:48;;;;;;;;;;;;;;;;;;5076544;28;20328;-60
2022/10/01 12:50:13;;;;;;;;;;;;;;;;;;5080707;28;20369;-61
2022/10/01 12:52:38;;;;;;;;;;;;;;;;;;5083550;28;19928;-59
2022/10/01 12:55:03;;;;;;;;;;;;;;;;;;5080854;28;19913;-59
2022/10/01 12:57:31;;;;;;;;;;;;;;;;;;5080244;28;19920;-61
2022/10/01 12:59:58;;;;;;;;;;;;;;;;;;5084135;28;20039;-61
2022/10/01 13:02:23;;;;;;;;;;;;;;;;;;5083575;28;19916;-59
2022/10/01 13:04:48;;;;;;;;;;;;;;;;;;5081259;28;19936;-60
2022/10/01 13:07:13;;;;;;;;;;;;;;;;;;5081561;28;19919;-60
2022/10/01 13:09:38;;;;;;;;;;;;;;;;;;5062507;28;20409;-60
2022/10/01 13:12:04;;;;;;;;;;;;;;;;;;5085767;28;19912;-60
2022/10/01 13:14:31;;;;;;;;;;;;;;;;;;5073576;28;19916;-61
2022/10/01 13:16:57;;;;;;;;;;;;;;;;;;5083164;28;20007;-60
2022/10/01 13:19:23;;;;;;;;;;;;;;;;;;5076532;28;20014;-59
2022/10/01 13:21:48;;;;;;;;;;;;;;;;;;5085534;28;20356;-61
2022/10/01 13:24:14;;;;;;;;;;;;;;;;;;5084334;28;19923;-61
2022/10/01 13:26:39;;;;;;;;;;;;;;;;;;5087153;28;19916;-61
2022/10/01 13:29:04;;;;;;;;;;;;;;;;;;5085855;28;19957;-63
2022/10/01 13:31:30;;;;;;;;;;;;;;;;;;5089063;28;19912;-61
2022/10/01 13:33:55;;;;;;;;;;;;;;;;;;5075525;28;19908;-60
2022/10/01 13:36:20;;;;;;;;;;;;;;;;;;5076152;28;19912;-61
2022/10/01 13:38:46;;;;;;;;;;;;;;;;;;5076532;28;19912;-61
2022/10/01 13:41:11;;;;;;;;;;;;;;;;;;5061369;28;19912;-61
2022/10/01 13:43:36;;;;;;;;;;;;;;;;;;5076357;28;19916;-61
2022/10/01 13:46:01;;;;;;;;;;;;;;;;;;5083164;28;20345;-60
2022/10/01 13:48:28;;;;;;;;;;;;;;;;;;5081801;28;20439;-60
2022/10/01 13:50:54;;;;;;;;;;;;;;;;;;5087595;28;19920;-61
2022/10/01 13:53:19;;;;;;;;;;;;;;;;;;5085131;28;19912;-61
2022/10/01 13:55:44;;;;;;;;;;;;;;;;;;5088605;28;19934;-61
2022/10/01 13:58:09;;;;;;;;;;;;;;;;;;5081659;28;20405;-61
2022/10/01 14:00:34;;;;;;;;;;;;;;;;;;5067201;28;20368;-61
2022/10/01 14:02:59;;;;;;;;;;;;;;;;;;5085426;28;19924;-60
2022/10/01 14:05:25;;;;;;;;;;;;;;;;;;5091741;28;19959;-62
2022/10/01 14:07:50;;;;;;;;;;;;;;;;;;5084202;28;19922;-61
2022/10/01 14:10:16;;;;;;;;;;;;;;;;;;5079324;28;20383;-63
2022/10/01 14:18:09;;;;;;;;;;;;;;;;;;5083558;28;19919;-61
2022/10/01 14:20:34;;;;;;;;;;;;;;;;;;5084249;28;19921;-62
2022/10/01 14:22:59;;;;;;;;;;;;;;;;;;5078183;28;19924;-62
2022/10/01 14:25:24;;;;;;;;;;;;;;;;;;5089898;28;19912;-62
2022/10/01 14:27:49;;;;;;;;;;;;;;;;;;5080532;28;19909;-61
2022/10/01 14:30:14;;;;;;;;;;;;;;;;;;5083638;28;19912;-60
2022/10/01 14:32:39;;;;;;;;;;;;;;;;;;5081510;28;20343;-60
2022/10/01 14:35:05;;;;;;;;;;;;;;;;;;5080394;28;20397;-61
2022/10/01 14:37:30;;;;;;;;;;;;;;;;;;5076908;28;19951;-63
2022/10/01 14:39:55;;;;;;;;;;;;;;;;;;5077589;28;19916;-62
2022/10/01 14:42:20;;;;;;;;;;;;;;;;;;5077545;28;20530;-62
2022/10/01 14:44:45;;;;;;;;;;;;;;;;;;5084496;28;19912;-61
2022/10/01 14:47:10;;;;;;;;;;;;;;;;;;5080493;28;19990;-62
2022/10/01 14:49:36;;;;;;;;;;;;;;;;;;5077528;28;19958;-64
2022/10/01 14:52:01;;;;;;;;;;;;;;;;;;5083080;28;19920;-64
2022/10/01 14:54:26;;;;;;;;;;;;;;;;;;5083659;28;20319;-63
2022/10/01 14:56:51;;;;;;;;;;;;;;;;;;5084284;28;19920;-67
2022/10/01 14:59:16;;;;;;;;;;;;;;;;;;5082320;28;20280;-66
2022/10/01 15:01:41;;;;;;;;;;;;;;;;;;5080984;28;20095;-66
2022/10/01 15:04:06;;;;;;;;;;;;;;;;;;5063590;28;19951;-65
2022/10/01 15:06:31;;;;;;;;;;;;;;;;;;5083516;28;20276;-65
2022/10/01 15:08:57;;;;;;;;;;;;;;;;;;5059560;28;19919;-63
2022/10/01 15:11:22;;;;;;;;;;;;;;;;;;5079274;28;19916;-64
2022/10/01 15:13:47;;;;;;;;;;;;;;;;;;5086190;28;19978;-63
2022/10/01 15:16:12;;;;;;;;;;;;;;;;;;5087404;28;19920;-64
2022/10/01 15:18:37;;;;;;;;;;;;;;;;;;5059287;28;19959;-66
2022/10/01 15:21:05;;;;;;;;;;;;;;;;;;5057181;28;19920;-64
2022/10/01 15:23:30;;;;;;;;;;;;;;;;;;5078312;28;21537;-64
2022/10/01 15:25:55;;;;;;;;;;;;;;;;;;5090335;28;19951;-63
2022/10/01 15:28:20;;;;;;;;;;;;;;;;;;5079692;28;19915;-63
2022/10/01 15:30:45;;;;;;;;;;;;;;;;;;5055036;28;19912;-63
2022/10/01 15:33:10;;;;;;;;;;;;;;;;;;5074739;28;19912;-64
2022/10/01 15:35:35;;;;;;;;;;;;;;;;;;5077695;28;19914;-64
2022/10/01 15:38:01;;;;;;;;;;;;;;;;;;5072787;28;19939;-63
2022/10/01 15:40:26;;;;;;;;;;;;;;;;;;5057931;28;19916;-63
2022/10/01 15:42:52;;;;;;;;;;;;;;;;;;5088845;28;20431;-64
2022/10/01 15:45:17;;;;;;;;;;;;;;;;;;5092247;28;20273;-63
2022/10/01 15:47:42;;;;;;;;;;;;;;;;;;5083343;28;19920;-63
2022/10/01 15:50:07;;;;;;;;;;;;;;;;;;5064549;28;19918;-63
2022/10/01 15:52:51;;;;;;;;;;;;;;;;;;5092685;28;19952;-63
2022/10/01 15:55:17;;;;;;;;;;;;;;;;;;5076024;28;19966;-63
2022/10/01 15:57:42;;;;;;;;;;;;;;;;;;5079897;28;19912;-64
2022/10/01 16:00:07;;;;;;;;;;;;;;;;;;5087923;28;19962;-63
2022/10/01 16:02:33;;;;;;;;;;;;;;;;;;5073973;28;19921;-63
2022/10/01 16:04:58;;;;;;;;;;;;;;;;;;5085738;28;19912;-63
2022/10/01 16:07:23;;;;;;;;;;;;;;;;;;5079748;28;19912;-63
2022/10/01 16:09:48;;;;;;;;;;;;;;;;;;5081684;28;19916;-63
2022/10/01 16:12:14;;;;;;;;;;;;;;;;;;5080760;28;19982;-64
2022/10/01 16:14:41;;;;;;;;;;;;;;;;;;5067899;28;19921;-64
2022/10/01 16:17:06;;;;;;;;;;;;;;;;;;5083753;28;19912;-63
2022/10/01 16:19:31;;;;;;;;;;;;;;;;;;5063030;28;19927;-64
2022/10/01 16:21:56;;;;;;;;;;;;;;;;;;5080081;28;19913;-63
2022/10/01 16:24:22;;;;;;;;;;;;;;;;;;5054359;28;19920;-63
2022/10/01 16:26:47;;;;;;;;;;;;;;;;;;5078284;28;19919;-64
2022/10/01 16:29:13;;;;;;;;;;;;;;;;;;5075154;28;20364;-63
2022/10/01 16:31:38;;;;;;;;;;;;;;;;;;5074308;28;20062;-64
2022/10/01 16:34:03;;;;;;;;;;;;;;;;;;5073198;28;20359;-63
2022/10/01 16:36:28;;;;;;;;;;;;;;;;;;5070953;28;20352;-63
2022/10/01 16:38:54;;;;;;;;;;;;;;;;;;5072492;28;20368;-63
2022/10/01 16:41:19;;;;;;;;;;;;;;;;;;5061099;28;19912;-63